aviador You're here:

OTBD Decoded Metar

DOHA in QATAR
Report Time2017-07-26 06:00:00
UTC Time2017-07-26 06:38:13
Flight Rules vfr VFR
Wind090° at 05 kt
W.Decomp.*RWY 15: 2.3 kt HW 4.4 kt LCW
W.Rank090° ranks 10
Current wind is below 090° avg. (7.0)
Visibility9000 m
Phenomena:N/A
Clouds:N/A
Expected CloudBase > 6,400 ft AGL from Temp-Dew spread
CeilingNone
Temp39°C (ISA +24)
Dew Point23°C (40% RH)
Heat Index45.8°C
QNH0997 hPa
Density Alt3,648 ft
Elevation33 ft
Report Wrong Elevation
Raw Report
METAR OTBD 260600Z 09005KT 040V140 9000 NSC 39/23 Q0997 NOSIG=

Extra information for OTBD:More info

Metar Taf Metar & Taf Last 4 Metars F.Rules Stats Wind Profile Meteogram Temp Stats Airport Information Weather charts Add Link Nearby VenuesMetar ALERT Operation Metar Decoded Social comments